createdAt,value
2023-03-26T00:02:07.580Z,7.56
2023-03-26T00:04:35.742Z,7.59
2023-03-26T00:07:05.074Z,7.56
2023-03-26T00:09:35.591Z,7.44
2023-03-26T00:12:03.668Z,7.31
2023-03-26T00:14:33.389Z,7.29
2023-03-26T00:17:04.204Z,7.28
2023-03-26T00:19:32.299Z,7.32
2023-03-26T00:22:00.556Z,7.77
2023-03-26T00:24:30.660Z,7.41
2023-03-26T00:26:59.672Z,7.73
2023-03-26T00:29:28.673Z,7.73
2023-03-26T00:31:58.007Z,7.68
2023-03-26T00:34:26.670Z,7.89
2023-03-26T00:36:55.013Z,7.80
2023-03-26T00:39:23.889Z,7.85
2023-03-26T00:41:55.030Z,7.87
2023-03-26T00:44:23.191Z,7.69
2023-03-26T00:46:51.181Z,7.67
2023-03-26T00:49:20.639Z,7.55
2023-03-26T00:51:48.645Z,7.69
2023-03-26T00:54:17.304Z,7.63
2023-03-26T00:56:45.413Z,7.50
2023-03-26T00:59:13.562Z,7.43
2023-03-26T01:01:41.637Z,7.66
2023-03-26T01:04:28.186Z,7.66
2023-03-26T01:06:58.495Z,7.48
2023-03-26T01:09:30.635Z,7.57
2023-03-26T01:11:58.825Z,7.61
2023-03-26T01:14:28.933Z,7.74
2023-03-26T01:16:57.964Z,7.42
2023-03-26T01:19:30.387Z,7.38
2023-03-26T01:21:59.239Z,7.42
2023-03-26T01:24:28.592Z,7.37
2023-03-26T01:27:10.612Z,7.58
2023-03-26T01:29:44.593Z,7.68
2023-03-26T01:32:23.229Z,7.97
2023-03-26T01:35:06.241Z,7.63
2023-03-26T01:37:41.544Z,7.64
2023-03-26T01:40:19.714Z,7.59
2023-03-26T01:42:58.997Z,7.62
2023-03-26T01:45:31.302Z,7.64
2023-03-26T01:48:00.273Z,7.64
2023-03-26T01:50:28.633Z,7.98
2023-03-26T01:52:57.148Z,7.63
2023-03-26T01:55:36.608Z,7.73
2023-03-26T01:58:11.182Z,7.63
2023-03-26T02:00:45.949Z,7.57
2023-03-26T02:03:27.030Z,7.57
2023-03-26T02:05:59.320Z,7.70
2023-03-26T02:08:35.852Z,7.81
2023-03-26T02:11:11.526Z,7.85
2023-03-26T02:13:44.933Z,7.73
2023-03-26T02:16:16.311Z,7.68
2023-03-26T02:18:45.664Z,7.78
2023-03-26T02:21:20.159Z,7.63
2023-03-26T02:23:57.685Z,7.75
2023-03-26T02:26:27.810Z,7.57
2023-03-26T02:29:02.900Z,7.38
2023-03-26T02:31:31.584Z,7.77
2023-03-26T02:34:00.001Z,7.68
2023-03-26T02:36:30.742Z,8.03
2023-03-26T02:39:02.438Z,7.86
2023-03-26T02:41:36.034Z,7.64
2023-03-26T02:44:09.268Z,7.43
2023-03-26T02:47:12.680Z,7.92
2023-03-26T02:49:55.923Z,7.57
2023-03-26T02:52:56.778Z,7.18
2023-03-26T02:55:25.511Z,7.52
2023-03-26T02:57:57.811Z,7.51
2023-03-26T03:00:33.670Z,8.23
2023-03-26T03:03:29.936Z,7.70
2023-03-26T03:06:01.048Z,7.78
2023-03-26T03:08:49.922Z,7.68
2023-03-26T03:11:21.890Z,7.79
2023-03-26T03:13:53.428Z,7.83
2023-03-26T03:16:24.710Z,8.01
2023-03-26T03:18:57.454Z,7.71
2023-03-26T03:21:32.002Z,7.73
2023-03-26T03:24:00.577Z,7.51
2023-03-26T03:26:34.065Z,7.86
2023-03-26T03:29:14.769Z,7.55
2023-03-26T03:31:43.162Z,7.38
2023-03-26T03:34:23.376Z,7.64
2023-03-26T03:36:52.689Z,7.89
2023-03-26T03:39:33.301Z,7.65
2023-03-26T03:42:01.763Z,7.70
2023-03-26T03:44:33.640Z,8.38
2023-03-26T03:47:05.243Z,8.59
2023-03-26T03:49:33.643Z,8.05
2023-03-26T03:52:02.608Z,7.46
2023-03-26T03:54:37.350Z,7.59
2023-03-26T03:57:22.713Z,8.24
2023-03-26T04:00:00.243Z,7.51
2023-03-26T04:02:34.597Z,7.39
2023-03-26T04:05:07.299Z,7.65
2023-03-26T04:07:36.654Z,7.42
2023-03-26T04:10:09.899Z,7.24
2023-03-26T04:12:58.127Z,7.53
2023-03-26T04:15:54.987Z,7.90
2023-03-26T04:18:26.566Z,8.00
2023-03-26T04:20:55.795Z,8.22
2023-03-26T04:23:28.984Z,8.30
2023-03-26T04:26:06.465Z,7.98
2023-03-26T04:28:57.331Z,7.36
2023-03-26T04:31:30.685Z,7.07
2023-03-26T04:34:08.294Z,7.40
2023-03-26T04:36:46.262Z,7.75
2023-03-26T04:39:15.161Z,7.46
2023-03-26T04:42:06.494Z,7.57
2023-03-26T04:44:47.328Z,7.65
2023-03-26T04:47:17.141Z,8.11
2023-03-26T04:49:48.387Z,7.99
2023-03-26T04:52:18.382Z,8.01
2023-03-26T04:54:58.798Z,7.89
2023-03-26T04:57:33.805Z,7.83
2023-03-26T05:00:19.449Z,7.55
2023-03-26T05:02:57.799Z,7.62
2023-03-26T05:05:27.886Z,7.71
2023-03-26T05:07:59.106Z,7.73
2023-03-26T05:10:29.645Z,7.74
2023-03-26T05:13:05.361Z,7.94
2023-03-26T05:15:38.409Z,8.05
2023-03-26T05:18:12.020Z,8.21
2023-03-26T05:20:46.388Z,8.31
2023-03-26T05:23:14.883Z,8.20
2023-03-26T05:25:47.101Z,7.89
2023-03-26T05:28:20.608Z,7.90
2023-03-26T05:30:56.853Z,7.80
2023-03-26T05:33:28.789Z,7.84
2023-03-26T05:36:06.955Z,8.45
2023-03-26T05:38:35.667Z,7.99
2023-03-26T05:41:07.816Z,8.07
2023-03-26T05:43:38.503Z,8.04
2023-03-26T05:46:17.977Z,8.15
2023-03-26T05:48:47.893Z,8.21
2023-03-26T05:51:16.939Z,8.53
2023-03-26T05:53:56.098Z,8.55
2023-03-26T05:56:24.355Z,8.25
2023-03-26T05:59:10.918Z,8.23
2023-03-26T06:01:57.880Z,8.53
2023-03-26T06:04:47.688Z,8.44
2023-03-26T06:07:35.141Z,8.45
2023-03-26T06:10:11.840Z,8.12
2023-03-26T06:12:47.157Z,8.58
2023-03-26T06:15:17.838Z,8.43
2023-03-26T06:17:54.209Z,8.80
2023-03-26T06:20:35.826Z,8.34
2023-03-26T06:23:10.417Z,8.78
2023-03-26T06:25:46.678Z,8.79
2023-03-26T06:28:23.728Z,8.94
2023-03-26T06:31:01.050Z,8.93
2023-03-26T06:33:36.723Z,8.74
2023-03-26T06:36:07.416Z,8.73
2023-03-26T06:38:36.245Z,8.95
2023-03-26T06:41:07.518Z,8.52
2023-03-26T06:43:56.300Z,9.10
2023-03-26T06:46:47.177Z,9.04
2023-03-26T06:49:35.487Z,8.81
2023-03-26T06:52:19.237Z,8.52
2023-03-26T06:54:47.454Z,8.33
2023-03-26T06:57:35.891Z,8.21
2023-03-26T07:00:22.739Z,8.39
2023-03-26T07:03:11.214Z,8.26
2023-03-26T07:06:09.619Z,8.32
2023-03-26T07:08:58.058Z,8.89
2023-03-26T07:11:44.774Z,8.70
2023-03-26T07:14:42.234Z,8.49
2023-03-26T07:17:22.255Z,8.96
2023-03-26T07:20:03.603Z,8.46
2023-03-26T07:22:32.830Z,8.56
2023-03-26T07:25:19.524Z,8.27
2023-03-26T07:28:19.422Z,8.57
2023-03-26T07:31:27.165Z,8.40
2023-03-26T07:34:32.081Z,8.54
2023-03-26T07:37:46.057Z,8.15
2023-03-26T07:40:47.195Z,8.36
2023-03-26T07:43:51.530Z,8.36
2023-03-26T07:46:39.188Z,8.22
2023-03-26T07:49:37.619Z,8.21
2023-03-26T07:52:15.264Z,8.26
2023-03-26T07:55:04.515Z,7.93
2023-03-26T07:58:04.684Z,7.83
2023-03-26T08:00:57.779Z,8.49
2023-03-26T08:03:41.461Z,8.71
2023-03-26T08:06:35.312Z,8.22
2023-03-26T08:09:23.469Z,8.20
2023-03-26T08:12:24.032Z,8.51
2023-03-26T08:15:05.523Z,8.26
2023-03-26T08:17:40.579Z,8.35
2023-03-26T08:20:21.294Z,8.53
2023-03-26T08:22:55.183Z,8.30
2023-03-26T08:25:29.592Z,8.17
2023-03-26T08:28:10.636Z,7.98
2023-03-26T08:30:40.569Z,7.98
2023-03-26T08:33:14.235Z,8.05
2023-03-26T08:35:43.145Z,8.31
2023-03-26T08:38:13.300Z,8.12
2023-03-26T08:41:19.275Z,8.21
2023-03-26T08:44:16.570Z,8.19
2023-03-26T08:47:10.169Z,8.16
2023-03-26T08:50:23.233Z,8.41
2023-03-26T08:53:21.682Z,8.70
2023-03-26T08:55:56.572Z,8.60
2023-03-26T08:58:44.604Z,8.71
2023-03-26T09:01:51.551Z,8.29
2023-03-26T09:04:46.833Z,8.83
2023-03-26T09:07:37.308Z,8.84
2023-03-26T09:10:32.906Z,8.88
2023-03-26T09:13:24.318Z,9.00
2023-03-26T09:16:47.863Z,9.98
2023-03-26T09:19:54.922Z,10.09
2023-03-26T09:22:56.714Z,10.21
2023-03-26T09:25:49.519Z,9.93
2023-03-26T09:28:54.362Z,11.25
2023-03-26T09:31:46.132Z,10.86
2023-03-26T09:34:30.309Z,11.96
2023-03-26T09:37:14.966Z,10.83
2023-03-26T09:39:57.153Z,11.28
2023-03-26T09:42:36.657Z,10.64
2023-03-26T09:45:37.076Z,10.31
2023-03-26T09:48:37.186Z,10.30
2023-03-26T09:51:23.876Z,11.08
2023-03-26T09:54:16.369Z,11.00
2023-03-26T09:56:53.345Z,11.03
2023-03-26T09:59:55.003Z,11.33
2023-03-26T10:02:54.951Z,11.41
2023-03-26T10:05:46.240Z,11.61
2023-03-26T10:08:35.652Z,12.20
2023-03-26T10:11:10.303Z,12.09
2023-03-26T10:13:55.884Z,13.12
2023-03-26T10:16:39.686Z,12.44
2023-03-26T10:19:23.525Z,12.03
2023-03-26T10:22:03.711Z,12.57
2023-03-26T10:24:49.820Z,12.22
2023-03-26T10:27:33.496Z,12.12
2023-03-26T10:30:24.131Z,12.28
2023-03-26T10:33:03.589Z,12.53
2023-03-26T10:35:46.378Z,12.35
2023-03-26T10:38:25.158Z,12.35
2023-03-26T10:41:05.961Z,12.46
2023-03-26T10:44:07.370Z,12.32
2023-03-26T10:46:48.226Z,12.49
2023-03-26T10:49:49.914Z,12.77
2023-03-26T10:52:22.999Z,12.86
2023-03-26T10:54:57.074Z,12.87
2023-03-26T10:57:42.155Z,13.69
2023-03-26T11:00:25.149Z,13.01
2023-03-26T11:03:19.045Z,13.02
2023-03-26T11:05:53.248Z,13.87
2023-03-26T11:08:31.623Z,14.54
2023-03-26T11:11:12.969Z,13.65
2023-03-26T11:13:52.048Z,13.05
2023-03-26T11:16:26.653Z,12.94
2023-03-26T11:19:02.776Z,12.88
2023-03-26T11:21:41.069Z,12.85
2023-03-26T11:24:49.768Z,12.86
2023-03-26T11:27:28.380Z,12.67
2023-03-26T11:30:04.976Z,12.22
2023-03-26T11:32:41.699Z,11.81
2023-03-26T11:35:40.590Z,11.58
2023-03-26T11:38:20.139Z,11.57
2023-03-26T11:40:52.252Z,12.61
2023-03-26T11:43:37.779Z,12.96
2023-03-26T11:46:12.612Z,13.23
2023-03-26T11:48:45.016Z,12.57
2023-03-26T11:51:19.502Z,13.21
2023-03-26T11:53:49.637Z,12.65
2023-03-26T11:56:27.835Z,12.71
2023-03-26T11:59:01.922Z,12.78
2023-03-26T12:01:44.061Z,12.65
2023-03-26T12:04:14.451Z,13.43
2023-03-26T12:06:53.695Z,13.38
2023-03-26T12:09:23.856Z,13.17
2023-03-26T12:11:55.698Z,13.63
2023-03-26T12:14:29.340Z,13.24
2023-03-26T12:17:00.192Z,14.20
2023-03-26T12:19:34.898Z,14.09
2023-03-26T12:22:03.270Z,15.51
2023-03-26T12:24:34.637Z,14.74
2023-03-26T12:27:21.845Z,14.92
2023-03-26T12:29:53.496Z,14.14
2023-03-26T12:34:50.840Z,14.42
2023-03-26T12:37:43.271Z,14.65
2023-03-26T12:40:29.864Z,15.44
2023-03-26T12:44:55.725Z,15.30
2023-03-26T12:47:54.422Z,14.78
2023-03-26T12:48:41.098Z,15.17
2023-03-26T12:51:17.459Z,15.58
2023-03-26T12:54:15.217Z,15.77
2023-03-26T12:57:12.493Z,15.35
2023-03-26T13:00:06.512Z,14.74
2023-03-26T13:03:02.991Z,13.86
2023-03-26T13:05:42.683Z,13.64
2023-03-26T13:08:22.405Z,13.60
2023-03-26T13:10:51.518Z,13.54
2023-03-26T13:13:32.370Z,13.31
2023-03-26T13:16:06.887Z,11.23
2023-03-26T13:18:45.433Z,10.84
2023-03-26T13:21:20.621Z,11.11
2023-03-26T13:23:59.815Z,11.29
2023-03-26T13:26:42.980Z,12.39
2023-03-26T13:29:21.489Z,13.02
2023-03-26T13:31:58.270Z,13.23
2023-03-26T13:34:38.076Z,13.01
2023-03-26T13:37:14.476Z,13.14
2023-03-26T13:39:58.689Z,13.20
2023-03-26T13:42:43.061Z,13.83
2023-03-26T13:45:43.717Z,14.21
2023-03-26T13:48:17.313Z,14.22
2023-03-26T13:50:57.607Z,13.51
2023-03-26T13:53:30.862Z,13.25
2023-03-26T13:56:01.114Z,13.09
2023-03-26T13:58:36.922Z,13.03
2023-03-26T14:01:16.777Z,13.01
2023-03-26T14:03:54.736Z,13.44
2023-03-26T14:06:36.119Z,12.88
2023-03-26T14:09:08.316Z,13.26
2023-03-26T14:11:42.788Z,13.04
2023-03-26T14:14:13.121Z,13.11
2023-03-26T14:16:45.434Z,13.13
2023-03-26T14:19:24.746Z,12.79
2023-03-26T14:21:57.952Z,12.89
2023-03-26T14:24:47.107Z,12.78
2023-03-26T14:27:34.980Z,12.97
2023-03-26T14:30:27.054Z,12.51
2023-03-26T14:33:04.152Z,12.58
2023-03-26T14:35:37.753Z,12.44
2023-03-26T14:38:36.222Z,12.26
2023-03-26T14:41:10.603Z,12.16
2023-03-26T14:43:50.504Z,12.01
2023-03-26T14:46:35.903Z,10.17
2023-03-26T14:49:39.257Z,9.07
2023-03-26T14:52:13.650Z,8.79
2023-03-26T14:54:46.693Z,8.30
2023-03-26T14:57:35.346Z,8.57
2023-03-26T15:00:33.452Z,8.25
2023-03-26T15:03:18.544Z,8.05
2023-03-26T15:06:22.826Z,7.92
2023-03-26T15:09:34.223Z,8.00
2023-03-26T15:12:13.567Z,7.91
2023-03-26T15:15:01.251Z,7.82
2023-03-26T15:17:52.945Z,7.89
2023-03-26T15:20:45.433Z,8.02
2023-03-26T15:24:05.792Z,8.25
2023-03-26T15:27:09.934Z,7.95
2023-03-26T15:30:12.773Z,8.01
2023-03-26T15:33:18.171Z,8.11
2023-03-26T15:36:14.812Z,7.99
2023-03-26T15:39:18.958Z,8.26
2023-03-26T15:41:56.065Z,8.47
2023-03-26T15:44:53.090Z,8.63
2023-03-26T15:47:50.106Z,8.55
2023-03-26T15:50:33.124Z,8.31
2023-03-26T15:53:18.428Z,7.99
2023-03-26T15:56:01.655Z,8.40
2023-03-26T15:58:44.912Z,8.50
2023-03-26T16:01:26.536Z,8.57
2023-03-26T16:04:06.163Z,8.40
2023-03-26T16:06:46.510Z,8.72
2023-03-26T16:09:30.641Z,8.94
2023-03-26T16:12:00.876Z,8.79
2023-03-26T16:14:44.294Z,8.99
2023-03-26T16:17:14.750Z,8.81
2023-03-26T16:19:55.848Z,9.22
2023-03-26T16:22:43.671Z,8.58
2023-03-26T16:25:26.864Z,8.79
2023-03-26T16:28:34.618Z,8.77
2023-03-26T16:31:37.736Z,8.48
2023-03-26T16:34:22.604Z,8.37
2023-03-26T16:36:54.043Z,8.42
2023-03-26T16:39:25.985Z,8.42
2023-03-26T16:42:06.874Z,8.20
2023-03-26T16:44:42.989Z,8.17
2023-03-26T16:47:18.350Z,8.23
2023-03-26T16:50:08.116Z,8.44
2023-03-26T16:52:45.427Z,8.31
2023-03-26T16:55:18.802Z,8.31
2023-03-26T16:57:51.903Z,8.49
2023-03-26T17:00:48.064Z,8.22
2023-03-26T17:03:33.808Z,8.53
2023-03-26T17:06:07.778Z,8.39
2023-03-26T17:08:42.629Z,8.12
2023-03-26T17:11:20.726Z,8.49
2023-03-26T17:13:50.823Z,8.31
2023-03-26T17:16:23.416Z,8.32
2023-03-26T17:18:57.607Z,8.36
2023-03-26T17:21:28.925Z,8.34
2023-03-26T17:24:20.102Z,8.16
2023-03-26T17:27:08.256Z,8.50
2023-03-26T17:29:50.595Z,8.48
2023-03-26T17:32:23.136Z,8.34
2023-03-26T17:35:02.103Z,8.64
2023-03-26T17:37:47.791Z,8.19
2023-03-26T17:40:37.045Z,8.37
2023-03-26T17:43:09.586Z,8.46
2023-03-26T17:45:40.440Z,8.44
2023-03-26T17:48:11.672Z,8.39
2023-03-26T17:50:44.167Z,8.63
2023-03-26T17:53:17.811Z,8.37
2023-03-26T17:55:46.705Z,8.45
2023-03-26T17:58:24.123Z,8.02
2023-03-26T18:00:54.182Z,8.09
2023-03-26T18:03:25.055Z,8.04
2023-03-26T18:05:55.862Z,8.11
2023-03-26T18:08:45.147Z,8.17
2023-03-26T18:11:45.385Z,8.23
2023-03-26T18:14:28.234Z,8.28
2023-03-26T18:17:01.469Z,8.11
2023-03-26T18:19:31.895Z,8.08
2023-03-26T18:22:03.866Z,8.19
2023-03-26T18:24:32.880Z,8.07
2023-03-26T18:27:04.125Z,8.10
2023-03-26T18:29:33.633Z,7.88
2023-03-26T18:32:04.047Z,8.17
2023-03-26T18:34:33.077Z,8.26
2023-03-26T18:37:10.868Z,8.11
2023-03-26T18:39:39.013Z,8.09
2023-03-26T18:42:07.654Z,8.43
2023-03-26T18:44:36.698Z,7.88
2023-03-26T18:47:09.639Z,7.94
2023-03-26T18:49:37.994Z,8.06
2023-03-26T18:52:07.430Z,7.95
2023-03-26T18:54:38.319Z,7.97
2023-03-26T18:57:14.985Z,7.94
2023-03-26T18:59:45.709Z,7.63
2023-03-26T19:02:16.827Z,7.73
2023-03-26T19:04:47.105Z,7.76
2023-03-26T19:07:18.099Z,7.63
2023-03-26T19:09:46.224Z,7.73
2023-03-26T19:12:17.838Z,7.53
2023-03-26T19:14:57.175Z,7.73
2023-03-26T19:17:28.919Z,7.58
2023-03-26T19:19:57.694Z,7.22
2023-03-26T19:22:26.471Z,7.33
2023-03-26T19:24:57.484Z,7.17
2023-03-26T19:27:25.752Z,7.12
2023-03-26T19:29:54.032Z,7.34
2023-03-26T19:32:32.380Z,7.53
2023-03-26T19:35:01.269Z,7.41
2023-03-26T19:37:30.876Z,7.29
2023-03-26T19:40:05.396Z,7.01
2023-03-26T19:42:42.889Z,7.06
2023-03-26T19:45:16.767Z,6.99
2023-03-26T19:47:49.929Z,6.82
2023-03-26T19:50:36.641Z,6.92
2023-03-26T19:53:16.797Z,6.92
2023-03-26T19:55:55.692Z,7.00
2023-03-26T19:58:27.569Z,6.94
2023-03-26T20:00:56.945Z,6.85
2023-03-26T20:03:39.672Z,6.86
2023-03-26T20:06:08.935Z,6.89
2023-03-26T20:08:37.058Z,6.79
2023-03-26T20:11:14.847Z,7.03
2023-03-26T20:13:42.914Z,6.80
2023-03-26T20:16:15.663Z,6.84
2023-03-26T20:18:45.101Z,7.10
2023-03-26T20:21:16.457Z,7.21
2023-03-26T20:23:44.890Z,7.23
2023-03-26T20:26:14.174Z,7.38
2023-03-26T20:28:48.363Z,7.04
2023-03-26T20:31:22.217Z,7.46
2023-03-26T20:33:55.217Z,7.38
2023-03-26T20:36:33.454Z,7.15
2023-03-26T20:39:05.433Z,7.17
2023-03-26T20:41:38.975Z,7.46
2023-03-26T20:44:13.460Z,7.82
2023-03-26T20:46:42.255Z,7.30
2023-03-26T20:49:12.195Z,7.85
2023-03-26T20:51:42.039Z,7.43
2023-03-26T20:54:15.154Z,7.43
2023-03-26T20:56:43.341Z,7.20
2023-03-26T20:59:12.242Z,7.56
2023-03-26T21:01:41.436Z,7.26
2023-03-26T21:04:09.699Z,7.26
2023-03-26T21:06:39.292Z,7.29
2023-03-26T21:09:07.739Z,7.62
2023-03-26T21:11:42.903Z,7.44
2023-03-26T21:14:16.930Z,7.22
2023-03-26T21:16:45.287Z,7.22
2023-03-26T21:19:13.836Z,7.35
2023-03-26T21:21:59.777Z,7.20
2023-03-26T21:24:35.954Z,7.55
2023-03-26T21:27:09.620Z,7.23
2023-03-26T21:29:38.060Z,7.39
2023-03-26T21:32:06.447Z,7.37
2023-03-26T21:34:35.084Z,7.79
2023-03-26T21:37:04.437Z,7.16
2023-03-26T21:39:34.103Z,7.66
2023-03-26T21:42:04.878Z,7.23
2023-03-26T21:44:34.612Z,7.27
2023-03-26T21:47:03.483Z,7.35
2023-03-26T21:49:32.772Z,7.32
2023-03-26T21:52:01.669Z,7.13
2023-03-26T21:54:32.241Z,7.19
2023-03-26T21:57:21.171Z,7.27
2023-03-26T22:02:47.951Z,6.99
2023-03-26T22:05:18.273Z,7.24
2023-03-26T22:07:55.297Z,7.18
2023-03-26T22:10:24.296Z,7.14
2023-03-26T22:12:52.673Z,7.17
2023-03-26T22:15:21.762Z,6.97
2023-03-26T22:17:54.157Z,7.01
2023-03-26T22:20:25.048Z,7.17
2023-03-26T22:22:55.079Z,7.09
2023-03-26T22:25:24.731Z,7.15
2023-03-26T22:27:53.856Z,7.28
2023-03-26T22:30:22.164Z,7.20
2023-03-26T22:32:51.938Z,7.19
2023-03-26T22:35:20.366Z,7.18
2023-03-26T22:37:48.870Z,7.33
2023-03-26T22:40:17.873Z,7.17
2023-03-26T22:42:46.233Z,7.18
2023-03-26T22:45:15.039Z,7.12
2023-03-26T22:47:43.421Z,7.23
2023-03-26T22:50:13.672Z,7.15
2023-03-26T22:52:42.114Z,7.12
2023-03-26T22:55:11.770Z,6.99
2023-03-26T22:57:41.381Z,7.08
2023-03-26T23:00:16.354Z,6.99
2023-03-26T23:02:45.930Z,7.15
2023-03-26T23:05:18.313Z,6.92
2023-03-26T23:07:48.693Z,7.12
2023-03-26T23:10:17.235Z,6.91
2023-03-26T23:12:45.593Z,6.96
2023-03-26T23:15:14.096Z,6.88
2023-03-26T23:17:45.281Z,6.86
2023-03-26T23:20:24.587Z,6.87
2023-03-26T23:22:55.757Z,7.01
2023-03-26T23:25:24.076Z,6.71
2023-03-26T23:27:53.666Z,6.95
2023-03-26T23:30:21.920Z,6.72
2023-03-26T23:32:52.962Z,6.74
2023-03-26T23:35:21.418Z,6.76
2023-03-26T23:37:52.064Z,6.66
2023-03-26T23:40:20.754Z,6.64
2023-03-26T23:42:49.446Z,6.67
2023-03-26T23:45:18.092Z,6.62
2023-03-26T23:47:46.697Z,6.53
2023-03-26T23:50:15.066Z,6.57
2023-03-26T23:52:45.367Z,6.59
2023-03-26T23:55:15.088Z,6.56
2023-03-26T23:57:43.480Z,6.57
